Time;durP1;ratioP1;P1;durP2;ratioP2;P2;SDS_P1;SDS_P2;PMS_P1;PMS_P2;Temp;Humidity;BMP_temperature;BMP_pressure;BME280_temperature;BME280_humidity;BME280_pressure;Samples;Min_cycle;Max_cycle;Signal;HPM_P1;HPM_P2
2021/07/12 00:00:24;;;;;;;14.43;13.00;;;21.20;99.90;;;;;;4916837;29;20494;-69
2021/07/12 00:02:52;;;;;;;14.13;13.03;;;21.20;99.90;;;;;;4917322;29;20518;-70
2021/07/12 00:05:18;;;;;;;14.23;13.13;;;21.20;99.90;;;;;;4916758;29;20423;-70
2021/07/12 00:07:45;;;;;;;14.23;13.03;;;21.20;99.90;;;;;;4900538;29;20804;-70
2021/07/12 00:10:13;;;;;;;14.00;12.80;;;21.10;99.90;;;;;;4899615;29;20521;-70
2021/07/12 00:12:41;;;;;;;14.50;13.50;;;21.10;99.90;;;;;;4916429;29;20435;-70
2021/07/12 00:15:09;;;;;;;14.50;13.40;;;21.00;99.90;;;;;;4916664;29;20414;-70
2021/07/12 00:17:36;;;;;;;14.67;13.57;;;20.90;99.90;;;;;;4917315;29;20490;-70
2021/07/12 00:20:05;;;;;;;15.00;13.70;;;20.90;99.90;;;;;;4917025;29;20981;-78
2021/07/12 00:22:31;;;;;;;14.87;13.77;;;20.80;99.90;;;;;;4916713;29;20446;-70
2021/07/12 00:24:57;;;;;;;14.70;13.50;;;20.70;99.90;;;;;;4917047;29;20446;-70
2021/07/12 00:27:22;;;;;;;13.43;12.53;;;20.50;99.90;;;;;;4916372;29;20612;-69
2021/07/12 00:29:48;;;;;;;14.83;13.73;;;20.30;99.90;;;;;;4908959;29;20190;-69
2021/07/12 00:32:14;;;;;;;13.60;12.53;;;20.30;99.90;;;;;;4915333;29;20312;-70
2021/07/12 00:34:39;;;;;;;13.37;12.43;;;20.20;99.90;;;;;;4916847;29;20629;-69
2021/07/12 00:37:05;;;;;;;13.77;12.87;;;20.20;99.90;;;;;;4899188;29;20265;-80
2021/07/12 00:39:31;;;;;;;13.80;12.80;;;20.20;99.90;;;;;;4916654;29;20210;-70
2021/07/12 00:41:57;;;;;;;13.07;12.17;;;20.30;99.90;;;;;;4900112;29;20202;-70
2021/07/12 00:44:23;;;;;;;13.30;12.30;;;20.30;99.90;;;;;;4915576;29;20464;-69
2021/07/12 00:46:48;;;;;;;13.03;11.93;;;20.30;99.90;;;;;;4916739;29;20190;-70
2021/07/12 00:49:14;;;;;;;12.93;11.80;;;20.40;99.90;;;;;;4915382;29;20182;-70
2021/07/12 00:51:40;;;;;;;11.37;10.33;;;20.30;99.90;;;;;;4916594;29;20611;-70
2021/07/12 00:54:06;;;;;;;12.83;11.73;;;20.30;99.90;;;;;;4915682;29;20665;-79
2021/07/12 00:56:32;;;;;;;11.87;11.03;;;20.30;99.90;;;;;;4916275;29;20186;-69
2021/07/12 00:58:58;;;;;;;13.23;12.23;;;20.30;99.90;;;;;;4916671;29;20433;-70
2021/07/12 01:01:23;;;;;;;13.60;12.40;;;20.20;99.90;;;;;;4915476;29;20705;-70
2021/07/12 01:03:49;;;;;;;12.67;11.77;;;20.20;99.90;;;;;;4915747;29;20261;-70
2021/07/12 01:06:15;;;;;;;14.03;12.60;;;20.20;99.90;;;;;;4916055;29;20181;-69
2021/07/12 01:08:41;;;;;;;13.40;12.40;;;20.20;99.90;;;;;;4916082;29;20415;-70
2021/07/12 01:11:37;;;;;;;13.10;12.20;;;20.20;99.90;;;;;;4916088;29;20333;-80
2021/07/12 01:14:12;;;;;;;14.40;13.10;;;20.10;99.90;;;;;;4915911;29;20197;-70
2021/07/12 01:16:50;;;;;;;13.70;12.70;;;20.10;99.90;;;;;;4916566;29;20406;-70
2021/07/12 01:20:15;;;;;;;13.80;12.60;;;20.10;99.90;;;;;;4915549;29;20418;-70
2021/07/12 01:23:22;;;;;;;14.17;13.10;;;20.10;99.90;;;;;;4842336;29;20535;-70
2021/07/12 01:26:06;;;;;;;13.80;12.80;;;20.00;99.90;;;;;;4888742;29;20529;-70
2021/07/12 01:29:04;;;;;;;13.57;12.60;;;20.00;99.90;;;;;;4915506;29;20419;-69
2021/07/12 01:31:48;;;;;;;13.80;12.77;;;20.00;99.90;;;;;;4914644;29;20469;-70
2021/07/12 01:34:21;;;;;;;13.80;12.70;;;20.00;99.90;;;;;;4915119;29;20434;-70
2021/07/12 01:36:56;;;;;;;14.20;12.97;;;20.00;99.90;;;;;;4914793;29;20970;-69
2021/07/12 01:39:29;;;;;;;14.90;13.73;;;19.90;99.90;;;;;;4915554;29;20839;-69
2021/07/12 01:42:05;;;;;;;14.20;13.10;;;19.90;99.90;;;;;;4916136;29;20395;-69
2021/07/12 01:45:02;;;;;;;14.50;13.40;;;19.90;99.90;;;;;;4915132;29;20417;-69
2021/07/12 01:48:05;;;;;;;15.17;14.00;;;20.00;99.90;;;;;;4914965;29;20894;-69
2021/07/12 01:51:01;;;;;;;14.37;13.27;;;19.90;99.90;;;;;;4905309;29;20537;-69
2021/07/12 01:53:52;;;;;;;15.30;14.20;;;19.90;99.90;;;;;;4898288;29;20419;-70
2021/07/12 01:56:44;;;;;;;14.93;13.63;;;19.90;99.90;;;;;;4914983;29;20478;-70
2021/07/12 01:59:29;;;;;;;16.10;14.70;;;20.00;99.90;;;;;;4916786;29;20419;-80
2021/07/12 02:01:55;;;;;;;15.63;14.33;;;20.00;99.90;;;;;;4919769;29;20437;-70
2021/07/12 02:04:26;;;;;;;14.27;13.17;;;20.00;99.90;;;;;;4918979;29;20410;-70
2021/07/12 02:06:54;;;;;;;15.43;14.20;;;20.00;99.90;;;;;;4919853;29;20399;-70
2021/07/12 02:09:21;;;;;;;15.43;14.23;;;20.00;99.90;;;;;;4918893;29;20407;-69
2021/07/12 02:11:48;;;;;;;15.13;14.03;;;19.90;99.90;;;;;;4919580;29;20470;-70
2021/07/12 02:14:19;;;;;;;15.47;14.27;;;19.90;99.90;;;;;;4901956;29;20969;-70
2021/07/12 02:16:48;;;;;;;14.33;13.27;;;19.90;99.90;;;;;;4919378;29;20464;-70
2021/07/12 02:19:15;;;;;;;14.67;13.57;;;19.90;99.90;;;;;;4918213;29;20833;-70
2021/07/12 02:21:42;;;;;;;15.53;14.33;;;19.90;99.90;;;;;;4919344;29;20436;-70
2021/07/12 02:24:11;;;;;;;14.27;13.17;;;19.80;99.90;;;;;;4919329;29;20425;-70
2021/07/12 02:26:37;;;;;;;14.50;13.50;;;19.80;99.90;;;;;;4918785;29;20506;-70
2021/07/12 02:29:06;;;;;;;15.13;14.03;;;19.80;99.90;;;;;;4919103;29;21010;-70
2021/07/12 02:31:33;;;;;;;14.50;13.30;;;19.80;99.90;;;;;;4918065;29;20228;-70
2021/07/12 02:34:00;;;;;;;14.80;13.70;;;19.80;99.90;;;;;;4902211;29;20489;-69
2021/07/12 02:36:27;;;;;;;15.20;13.93;;;19.80;99.90;;;;;;4918033;29;20441;-70
2021/07/12 02:38:55;;;;;;;15.13;13.80;;;19.80;99.90;;;;;;4919124;29;20402;-70
2021/07/12 02:41:26;;;;;;;16.47;15.17;;;19.80;99.90;;;;;;4886063;29;20529;-70
2021/07/12 02:43:52;;;;;;;15.17;13.97;;;19.80;99.90;;;;;;4919088;29;20508;-70
2021/07/12 02:46:19;;;;;;;15.40;14.23;;;19.70;99.90;;;;;;4901502;29;20415;-70
2021/07/12 02:48:45;;;;;;;15.50;14.40;;;19.70;99.90;;;;;;4918872;29;20537;-70
2021/07/12 02:51:15;;;;;;;14.50;13.40;;;19.70;99.90;;;;;;4918802;29;20505;-79
2021/07/12 02:53:49;;;;;;;14.57;13.53;;;19.60;99.90;;;;;;4919299;29;20170;-70
2021/07/12 02:56:16;;;;;;;14.43;13.33;;;19.60;99.90;;;;;;4917870;29;20780;-79
2021/07/12 02:58:42;;;;;;;14.00;12.80;;;19.60;99.90;;;;;;4918616;29;20855;-70
2021/07/12 03:01:07;;;;;;;13.80;12.70;;;19.60;99.90;;;;;;4918490;29;20561;-70
2021/07/12 03:03:33;;;;;;;15.50;14.40;;;19.60;99.90;;;;;;4917577;29;20246;-70
2021/07/12 03:06:12;;;;;;;15.43;14.23;;;19.60;99.90;;;;;;4918710;29;20186;-72
2021/07/12 03:08:51;;;;;;;15.13;13.93;;;19.50;99.90;;;;;;4918131;29;20167;-69
2021/07/12 03:11:18;;;;;;;16.07;14.77;;;19.50;99.90;;;;;;4917480;29;20402;-69
2021/07/12 03:14:22;;;;;;;16.57;15.20;;;19.50;99.90;;;;;;4918304;29;20399;-69
2021/07/12 03:16:50;;;;;;;15.77;14.47;;;19.40;99.90;;;;;;4875967;29;20438;-69
2021/07/12 03:19:23;;;;;;;14.27;13.17;;;19.40;99.90;;;;;;4917470;29;20937;-70
2021/07/12 03:21:51;;;;;;;18.70;17.00;;;19.40;99.90;;;;;;4918630;29;20419;-69
2021/07/12 03:24:19;;;;;;;18.30;16.80;;;19.40;99.90;;;;;;4917560;29;20474;-74
2021/07/12 03:26:51;;;;;;;17.63;16.23;;;19.30;99.90;;;;;;4918154;29;20841;-68
2021/07/12 03:29:17;;;;;;;17.87;16.27;;;19.40;99.90;;;;;;4917602;29;20489;-77
2021/07/12 03:31:44;;;;;;;17.57;16.03;;;19.30;99.90;;;;;;4918160;29;20462;-69
2021/07/12 03:34:13;;;;;;;17.50;16.07;;;19.30;99.90;;;;;;4918203;29;20458;-69
2021/07/12 03:36:40;;;;;;;16.60;15.17;;;19.30;99.90;;;;;;4917623;29;20425;-68
2021/07/12 03:39:06;;;;;;;17.90;16.50;;;19.30;99.90;;;;;;4918169;29;20411;-68
2021/07/12 03:41:34;;;;;;;17.30;15.60;;;19.30;99.90;;;;;;4916769;29;20795;-68
2021/07/12 03:44:00;;;;;;;16.97;15.47;;;19.30;99.90;;;;;;4917761;29;20529;-68
2021/07/12 03:46:26;;;;;;;18.70;17.30;;;19.30;99.90;;;;;;4917065;29;20414;-68
2021/07/12 03:48:51;;;;;;;17.40;16.00;;;19.30;99.90;;;;;;4917820;29;20426;-68
2021/07/12 03:51:23;;;;;;;17.50;16.00;;;19.30;99.90;;;;;;4917773;29;20179;-77
2021/07/12 03:53:49;;;;;;;18.33;16.87;;;19.30;99.90;;;;;;4918074;29;20199;-68
2021/07/12 03:56:15;;;;;;;19.03;17.33;;;19.30;99.90;;;;;;4917698;29;20410;-77
2021/07/12 03:58:40;;;;;;;16.37;14.97;;;19.30;99.90;;;;;;4916566;29;20178;-68
2021/07/12 04:01:06;;;;;;;17.43;16.07;;;19.30;99.90;;;;;;4917563;29;20502;-68
2021/07/12 04:03:32;;;;;;;17.63;16.13;;;19.30;99.90;;;;;;4916877;29;20194;-68
2021/07/12 04:05:58;;;;;;;18.27;16.70;;;19.30;99.90;;;;;;4917679;29;20178;-68
2021/07/12 04:08:24;;;;;;;16.70;15.23;;;19.30;99.90;;;;;;4916527;29;20662;-68
2021/07/12 04:10:49;;;;;;;16.73;15.37;;;19.20;99.90;;;;;;4917138;29;20429;-69
2021/07/12 04:13:16;;;;;;;16.17;14.87;;;19.30;99.90;;;;;;4917329;29;20178;-73
2021/07/12 04:15:43;;;;;;;17.47;15.97;;;19.30;99.90;;;;;;4916556;29;20218;-69
2021/07/12 04:18:09;;;;;;;16.73;15.43;;;19.30;99.90;;;;;;4900415;29;20418;-68
2021/07/12 04:20:36;;;;;;;16.93;15.43;;;19.30;99.90;;;;;;4916122;29;20462;-69
2021/07/12 04:23:03;;;;;;;15.73;14.53;;;19.40;99.90;;;;;;4916064;29;20430;-69
2021/07/12 04:25:29;;;;;;;20.47;18.87;;;19.40;99.90;;;;;;4916157;29;20943;-69
2021/07/12 04:27:56;;;;;;;16.20;14.87;;;19.40;99.90;;;;;;4917301;29;20419;-68
2021/07/12 04:30:22;;;;;;;19.87;18.23;;;19.40;99.90;;;;;;4916153;29;20196;-69
2021/07/12 04:32:48;;;;;;;22.13;16.03;;;19.40;99.90;;;;;;4917194;29;20411;-68
2021/07/12 04:35:14;;;;;;;17.43;15.93;;;19.40;99.90;;;;;;4916857;29;20426;-69
2021/07/12 04:37:41;;;;;;;17.60;15.97;;;19.40;99.90;;;;;;4915886;29;20701;-71
2021/07/12 04:40:09;;;;;;;18.53;16.83;;;19.50;99.90;;;;;;4916861;29;20457;-72
2021/07/12 04:42:35;;;;;;;16.80;15.20;;;19.70;99.90;;;;;;4899907;29;20454;-72
2021/07/12 04:45:02;;;;;;;16.70;15.30;;;19.90;99.90;;;;;;4917479;29;20501;-72
2021/07/12 04:47:29;;;;;;;19.07;17.67;;;20.00;99.90;;;;;;4916769;29;20179;-71
2021/07/12 04:49:54;;;;;;;17.80;16.37;;;20.00;99.90;;;;;;4919699;29;20437;-71
2021/07/12 04:52:20;;;;;;;18.70;17.20;;;20.00;99.90;;;;;;4916558;29;20419;-72
2021/07/12 04:54:46;;;;;;;17.50;16.10;;;19.90;99.90;;;;;;4916239;29;20185;-71
2021/07/12 04:57:12;;;;;;;20.47;18.77;;;19.80;99.90;;;;;;4915170;29;20245;-71
2021/07/12 04:59:39;;;;;;;18.00;16.40;;;19.70;99.90;;;;;;4916136;29;20229;-72
2021/07/12 05:02:06;;;;;;;18.90;17.20;;;19.70;99.90;;;;;;4898618;29;20435;-72
2021/07/12 05:04:32;;;;;;;20.40;18.73;;;19.60;99.90;;;;;;4918782;29;20434;-72
2021/07/12 05:06:59;;;;;;;20.60;16.63;;;19.60;99.90;;;;;;4916873;29;20423;-72
2021/07/12 05:09:24;;;;;;;18.60;16.90;;;19.60;99.90;;;;;;4915999;29;20465;-70
2021/07/12 05:11:51;;;;;;;19.40;17.60;;;19.60;99.90;;;;;;4916840;29;20493;-70
2021/07/12 05:14:16;;;;;;;18.00;16.43;;;19.50;99.90;;;;;;4916237;29;20186;-70
2021/07/12 05:16:42;;;;;;;17.07;15.50;;;19.50;99.90;;;;;;4916136;29;20413;-70
2021/07/12 05:19:08;;;;;;;18.10;16.47;;;19.50;99.90;;;;;;4917059;29;20975;-70
2021/07/12 05:21:34;;;;;;;19.10;17.33;;;19.50;99.90;;;;;;4915529;29;20301;-70
2021/07/12 05:23:59;;;;;;;19.03;17.23;;;19.60;99.90;;;;;;4916666;29;20513;-70
2021/07/12 05:26:25;;;;;;;21.50;19.50;;;19.60;99.90;;;;;;4915795;29;20233;-70
2021/07/12 05:28:51;;;;;;;18.27;16.70;;;19.70;99.90;;;;;;4916186;29;20633;-70
2021/07/12 05:31:17;;;;;;;18.00;16.50;;;19.70;99.90;;;;;;4924388;29;20224;-70
2021/07/12 05:33:44;;;;;;;17.93;16.30;;;19.80;99.90;;;;;;4934085;29;20429;-70
2021/07/12 05:36:15;;;;;;;19.10;17.40;;;19.80;99.90;;;;;;4935076;29;20442;-70
2021/07/12 05:38:40;;;;;;;18.13;16.40;;;19.80;99.90;;;;;;4934934;29;20469;-70
2021/07/12 05:41:07;;;;;;;18.80;17.10;;;19.80;99.90;;;;;;4935311;29;20450;-70
2021/07/12 05:43:33;;;;;;;17.97;16.20;;;19.80;99.90;;;;;;4934937;29;20585;-70
2021/07/12 05:45:58;;;;;;;21.40;19.40;;;19.80;99.90;;;;;;4935495;29;20806;-70
2021/07/12 05:48:24;;;;;;;22.10;19.80;;;19.80;99.90;;;;;;4934825;29;20424;-71
2021/07/12 05:50:50;;;;;;;20.90;18.90;;;19.80;99.90;;;;;;4935408;29;20272;-70
2021/07/12 05:53:16;;;;;;;25.00;22.70;;;19.90;99.90;;;;;;4935382;29;20265;-70
2021/07/12 05:55:42;;;;;;;25.40;22.90;;;19.80;99.90;;;;;;4917598;29;21111;-70
2021/07/12 05:58:08;;;;;;;21.20;19.20;;;19.80;99.90;;;;;;4935231;29;20182;-70
2021/07/12 06:00:34;;;;;;;23.07;20.93;;;19.70;99.90;;;;;;4934551;29;20457;-70
2021/07/12 06:03:00;;;;;;;20.10;18.10;;;19.70;99.90;;;;;;4935386;29;20992;-70
2021/07/12 06:05:26;;;;;;;19.70;17.73;;;19.80;99.90;;;;;;4934653;29;20890;-70
2021/07/12 06:07:51;;;;;;;18.53;16.83;;;19.80;99.90;;;;;;4918686;29;20261;-70
2021/07/12 06:10:17;;;;;;;21.17;18.90;;;19.90;99.90;;;;;;4935157;29;20177;-70
2021/07/12 06:12:43;;;;;;;20.70;18.80;;;20.00;99.90;;;;;;4934597;29;20273;-70
2021/07/12 06:15:10;;;;;;;20.30;18.47;;;20.00;99.90;;;;;;4918001;29;20410;-70
2021/07/12 06:17:35;;;;;;;19.50;17.80;;;20.10;99.90;;;;;;4934539;29;20898;-70
2021/07/12 06:20:02;;;;;;;18.60;16.80;;;20.20;99.90;;;;;;4935011;29;20479;-70
2021/07/12 06:22:28;;;;;;;21.63;19.47;;;20.20;99.90;;;;;;4934534;29;20217;-70
2021/07/12 06:24:54;;;;;;;19.53;17.83;;;20.30;99.90;;;;;;4934894;29;20464;-70
2021/07/12 06:27:20;;;;;;;19.90;18.03;;;20.40;99.90;;;;;;4935127;29;20405;-70
2021/07/12 06:29:45;;;;;;;19.97;18.27;;;20.40;99.90;;;;;;4934403;29;20186;-70
2021/07/12 06:32:11;;;;;;;18.90;17.30;;;20.50;99.90;;;;;;4935103;29;20324;-70
2021/07/12 06:34:37;;;;;;;18.10;16.20;;;20.60;99.90;;;;;;4934326;29;20186;-70
2021/07/12 06:37:03;;;;;;;17.93;16.33;;;20.40;99.90;;;;;;4917906;29;20182;-70
2021/07/12 06:39:29;;;;;;;20.20;18.20;;;20.50;99.90;;;;;;4933850;29;20271;-70
2021/07/12 06:41:54;;;;;;;19.67;17.90;;;20.60;99.90;;;;;;4934914;29;20844;-70
2021/07/12 06:44:20;;;;;;;17.40;15.70;;;20.70;99.90;;;;;;4935231;29;20178;-70
2021/07/12 06:46:46;;;;;;;18.77;17.07;;;20.80;99.90;;;;;;4903830;29;20181;-70
2021/07/12 06:49:11;;;;;;;17.70;16.10;;;20.80;99.90;;;;;;4938308;29;20320;-70
2021/07/12 06:51:37;;;;;;;20.00;18.20;;;20.90;99.90;;;;;;4937715;29;20193;-70
2021/07/12 06:54:03;;;;;;;18.07;16.47;;;20.90;99.90;;;;;;4938406;29;20184;-70
2021/07/12 06:56:28;;;;;;;16.73;15.10;;;21.00;99.90;;;;;;4937660;29;20177;-70
2021/07/12 06:58:54;;;;;;;16.43;14.83;;;21.00;99.90;;;;;;4938212;29;20182;-70
2021/07/12 07:01:20;;;;;;;15.40;14.10;;;21.10;99.90;;;;;;4938149;29;20717;-70
2021/07/12 07:03:46;;;;;;;16.27;14.97;;;21.10;99.90;;;;;;4920382;29;20520;-70
2021/07/12 07:06:12;;;;;;;13.90;12.80;;;21.20;99.90;;;;;;4938122;29;20186;-70
2021/07/12 07:08:37;;;;;;;15.73;14.23;;;21.20;99.90;;;;;;4937457;29;20185;-70
2021/07/12 07:11:04;;;;;;;15.60;14.10;;;21.30;99.90;;;;;;4937975;29;20178;-70
2021/07/12 07:13:30;;;;;;;14.80;13.70;;;21.40;99.90;;;;;;4937380;29;20177;-70
2021/07/12 07:15:56;;;;;;;14.67;13.37;;;21.60;99.90;;;;;;4937944;29;20961;-70
2021/07/12 07:18:22;;;;;;;15.47;14.27;;;21.70;99.90;;;;;;4937881;29;20505;-70
2021/07/12 07:20:48;;;;;;;15.60;14.23;;;21.80;99.90;;;;;;4936912;29;20277;-70
2021/07/12 07:23:13;;;;;;;13.87;12.57;;;21.90;99.90;;;;;;4937787;29;20417;-70
2021/07/12 07:25:40;;;;;;;14.37;13.37;;;22.00;99.90;;;;;;4937117;29;20468;-70
2021/07/12 07:28:06;;;;;;;12.57;11.67;;;21.90;99.90;;;;;;4937700;29;20189;-70
2021/07/12 07:30:32;;;;;;;12.43;11.43;;;22.10;99.90;;;;;;4936767;29;20425;-71
2021/07/12 07:32:58;;;;;;;13.43;12.23;;;22.20;99.90;;;;;;4937743;29;20410;-70
2021/07/12 07:35:24;;;;;;;13.67;12.50;;;22.30;99.90;;;;;;4937336;29;20914;-70
2021/07/12 07:37:50;;;;;;;11.83;11.03;;;22.50;99.90;;;;;;4919728;29;20609;-70
2021/07/12 07:40:18;;;;;;;10.03;9.30;;;22.60;99.90;;;;;;4937381;29;20296;-70
2021/07/12 07:42:44;;;;;;;10.00;9.30;;;22.80;99.90;;;;;;4919887;29;20414;-70
2021/07/12 07:45:12;;;;;;;11.57;10.60;;;22.80;99.90;;;;;;4937518;29;20434;-71
2021/07/12 07:47:38;;;;;;;9.97;9.27;;;23.00;99.70;;;;;;4936799;29;20422;-70
2021/07/12 07:50:06;;;;;;;9.30;8.70;;;23.10;99.30;;;;;;4937267;29;20449;-70
2021/07/12 07:52:32;;;;;;;9.93;9.23;;;23.20;99.70;;;;;;4936618;29;20983;-70
2021/07/12 07:54:57;;;;;;;9.60;8.97;;;23.40;99.30;;;;;;4937204;29;20505;-70
2021/07/12 07:57:23;;;;;;;9.40;8.80;;;23.50;98.20;;;;;;4937031;29;20524;-71
2021/07/12 07:59:49;;;;;;;9.20;8.60;;;23.60;98.70;;;;;;4936488;29;20591;-70
2021/07/12 08:02:14;;;;;;;12.20;11.43;;;23.70;98.10;;;;;;4919895;29;20174;-70
2021/07/12 08:04:40;;;;;;;9.37;8.77;;;23.80;97.90;;;;;;4919376;29;20189;-70
2021/07/12 08:07:07;;;;;;;9.43;8.90;;;23.90;98.40;;;;;;4937067;29;20177;-70
2021/07/12 08:09:33;;;;;;;9.00;8.40;;;24.10;98.00;;;;;;4936262;29;20197;-71
2021/07/12 08:12:00;;;;;;;9.50;8.90;;;24.30;97.80;;;;;;4936896;29;20416;-70
2021/07/12 08:14:25;;;;;;;8.33;7.83;;;24.40;97.10;;;;;;4936796;29;20469;-70
2021/07/12 08:16:51;;;;;;;9.20;8.60;;;24.60;96.70;;;;;;4919018;29;20402;-70
2021/07/12 08:19:17;;;;;;;8.03;7.53;;;24.70;95.90;;;;;;4936726;29;20265;-70
2021/07/12 08:21:44;;;;;;;7.80;7.33;;;24.90;96.10;;;;;;4936106;29;20325;-70
2021/07/12 08:24:10;;;;;;;8.53;8.03;;;25.00;94.30;;;;;;4936694;29;20178;-70
2021/07/12 08:26:36;;;;;;;11.53;10.83;;;25.10;93.90;;;;;;4936016;29;20413;-70
2021/07/12 08:29:02;;;;;;;9.80;9.10;;;25.00;93.30;;;;;;4936555;29;20421;-70
2021/07/12 08:31:28;;;;;;;8.73;8.33;;;25.00;93.80;;;;;;4936095;29;20217;-70
2021/07/12 08:33:54;;;;;;;7.10;6.70;;;24.90;93.10;;;;;;4935897;29;20418;-70
2021/07/12 08:36:23;;;;;;;7.67;7.27;;;24.90;92.60;;;;;;4923849;29;20257;-70
2021/07/12 08:38:49;;;;;;;7.53;7.03;;;24.90;92.30;;;;;;4916604;29;20182;-69
2021/07/12 08:41:15;;;;;;;7.17;6.77;;;25.00;92.10;;;;;;4900138;29;20529;-71
2021/07/12 08:43:41;;;;;;;7.03;6.63;;;24.70;91.60;;;;;;4915698;29;20190;-70
2021/07/12 08:46:08;;;;;;;6.10;5.70;;;24.60;91.30;;;;;;4916938;29;20641;-69
2021/07/12 08:48:34;;;;;;;7.60;7.20;;;24.50;90.80;;;;;;4916503;29;20469;-80
2021/07/12 08:50:59;;;;;;;7.10;6.70;;;24.50;91.30;;;;;;4916145;29;20458;-70
2021/07/12 08:53:25;;;;;;;6.73;6.37;;;24.60;91.70;;;;;;4916776;29;20179;-70
2021/07/12 08:55:51;;;;;;;6.53;6.13;;;24.70;91.00;;;;;;4915707;29;20190;-69
2021/07/12 08:58:27;;;;;;;7.30;7.00;;;24.70;91.30;;;;;;4916373;29;20201;-69
2021/07/12 09:00:57;;;;;;;7.60;7.20;;;24.90;91.90;;;;;;4915302;29;20226;-69
2021/07/12 09:03:29;;;;;;;10.67;10.10;;;25.00;92.70;;;;;;4916372;29;20431;-69
2021/07/12 09:06:13;;;;;;;11.33;10.73;;;25.10;93.50;;;;;;4915617;29;20426;-69
2021/07/12 09:08:45;;;;;;;9.20;8.40;;;25.20;94.20;;;;;;4914885;29;20530;-70
2021/07/12 09:11:16;;;;;;;11.33;10.73;;;25.30;93.90;;;;;;4916223;29;20454;-69
2021/07/12 09:13:45;;;;;;;10.97;10.17;;;25.40;93.60;;;;;;4915108;29;20426;-69
2021/07/12 09:16:40;;;;;;;9.33;8.63;;;25.40;93.50;;;;;;4916064;29;20484;-69
2021/07/12 09:19:13;;;;;;;12.50;11.80;;;25.60;94.10;;;;;;4899763;29;20890;-70
2021/07/12 09:21:46;;;;;;;21.63;19.47;;;25.80;94.10;;;;;;4915532;29;20454;-70
2021/07/12 09:24:15;;;;;;;9.50;8.90;;;25.60;90.70;;;;;;4916084;29;20410;-70
2021/07/12 09:26:43;;;;;;;8.63;8.03;;;25.50;92.80;;;;;;4914835;29;20542;-70
2021/07/12 09:29:21;;;;;;;8.90;8.30;;;25.70;93.00;;;;;;4915636;29;20942;-71
2021/07/12 09:31:48;;;;;;;11.03;10.43;;;25.90;93.80;;;;;;4913814;29;20494;-71
2021/07/12 09:34:15;;;;;;;9.30;8.70;;;26.10;92.90;;;;;;4913925;29;20427;-74
2021/07/12 09:36:41;;;;;;;9.20;8.60;;;26.10;91.80;;;;;;4914618;29;20431;-71
2021/07/12 09:39:29;;;;;;;9.43;8.70;;;26.20;92.50;;;;;;4898411;29;20969;-69
2021/07/12 09:42:34;;;;;;;9.70;9.10;;;26.20;92.50;;;;;;4908958;29;20466;-69
2021/07/12 09:45:03;;;;;;;11.07;10.37;;;26.10;93.30;;;;;;4901830;29;20888;-69
2021/07/12 09:47:34;;;;;;;7.40;7.00;;;26.10;92.50;;;;;;4915973;29;20508;-71
2021/07/12 09:50:02;;;;;;;10.13;9.53;;;26.30;91.80;;;;;;4913030;29;20926;-71
2021/07/12 09:52:41;;;;;;;6.43;6.03;;;26.40;90.10;;;;;;4897148;29;20412;-71
2021/07/12 09:55:08;;;;;;;8.23;7.83;;;26.50;89.40;;;;;;4905350;29;20406;-71
2021/07/12 09:57:34;;;;;;;9.60;8.97;;;26.70;88.20;;;;;;4915657;29;20419;-71
2021/07/12 10:00:08;;;;;;;9.03;8.53;;;26.80;90.20;;;;;;4915393;29;20502;-71
2021/07/12 10:02:35;;;;;;;7.30;6.83;;;26.70;85.50;;;;;;4915439;29;20237;-71
2021/07/12 10:05:05;;;;;;;7.97;7.37;;;26.80;86.50;;;;;;4915502;29;20433;-70
2021/07/12 10:07:31;;;;;;;7.87;7.53;;;26.60;84.40;;;;;;4916195;29;20418;-71
2021/07/12 10:09:58;;;;;;;6.80;6.50;;;26.70;84.40;;;;;;4915676;29;20414;-71
2021/07/12 10:12:24;;;;;;;6.80;6.40;;;26.80;85.00;;;;;;4916144;29;20791;-72
2021/07/12 10:14:50;;;;;;;8.00;7.50;;;27.00;86.80;;;;;;4914216;29;20501;-71
2021/07/12 10:17:17;;;;;;;6.40;6.00;;;27.20;85.40;;;;;;4915233;29;20509;-70
2021/07/12 10:19:43;;;;;;;7.00;6.70;;;27.20;82.50;;;;;;4916108;29;20427;-71
2021/07/12 10:22:11;;;;;;;6.80;6.40;;;27.10;78.90;;;;;;4918012;29;20430;-71
2021/07/12 10:24:46;;;;;;;6.37;6.07;;;27.10;80.00;;;;;;4918476;29;20962;-76
2021/07/12 10:27:22;;;;;;;6.80;6.30;;;26.90;79.60;;;;;;4919792;29;20513;-71
2021/07/12 10:29:50;;;;;;;8.30;7.60;;;26.80;81.80;;;;;;4918454;29;20421;-71
2021/07/12 10:32:26;;;;;;;8.53;7.87;;;26.90;88.30;;;;;;4901794;29;20481;-70
2021/07/12 10:34:54;;;;;;;7.93;7.53;;;27.00;87.10;;;;;;4919052;29;20418;-70
2021/07/12 10:37:45;;;;;;;7.93;7.53;;;27.10;87.70;;;;;;4919562;29;20422;-70
2021/07/12 10:40:18;;;;;;;7.53;7.13;;;27.20;85.90;;;;;;4918829;29;20457;-71
2021/07/12 10:42:45;;;;;;;7.23;6.83;;;27.20;85.20;;;;;;4918365;29;20414;-71
2021/07/12 10:45:12;;;;;;;7.20;6.80;;;27.20;85.70;;;;;;4919068;29;20473;-70
2021/07/12 10:47:42;;;;;;;7.73;7.23;;;27.40;87.00;;;;;;4918562;29;20430;-70
2021/07/12 10:50:38;;;;;;;8.80;8.30;;;27.50;86.70;;;;;;4920229;29;20429;-70
2021/07/12 10:53:16;;;;;;;8.70;8.20;;;27.70;84.60;;;;;;4916068;29;20444;-69
2021/07/12 10:56:07;;;;;;;8.03;7.43;;;27.80;78.20;;;;;;4918199;29;20438;-75
2021/07/12 10:58:35;;;;;;;7.10;6.63;;;27.90;80.40;;;;;;4919213;29;20422;-70
2021/07/12 11:01:03;;;;;;;7.20;6.80;;;27.90;79.40;;;;;;4916774;29;21113;-70
2021/07/12 11:03:40;;;;;;;6.80;6.40;;;28.10;79.80;;;;;;4918484;29;20473;-70
2021/07/12 11:06:27;;;;;;;8.37;7.90;;;28.30;80.00;;;;;;4917970;29;20415;-70
2021/07/12 11:08:53;;;;;;;6.43;5.93;;;28.40;79.00;;;;;;4916616;29;20477;-70
2021/07/12 11:11:19;;;;;;;6.33;5.93;;;28.50;72.90;;;;;;4918268;29;20446;-70
2021/07/12 11:13:58;;;;;;;6.90;6.50;;;28.50;72.80;;;;;;4908055;29;20430;-72
2021/07/12 11:16:47;;;;;;;6.50;6.20;;;28.50;71.30;;;;;;4918662;29;20178;-69
2021/07/12 11:19:33;;;;;;;6.00;5.70;;;28.30;72.70;;;;;;4917951;29;20465;-69
2021/07/12 11:22:13;;;;;;;6.50;6.20;;;27.90;72.70;;;;;;4900830;29;20446;-71
2021/07/12 11:25:08;;;;;;;6.20;5.80;;;27.50;74.60;;;;;;4918159;29;20454;-71
2021/07/12 11:28:07;;;;;;;6.47;6.07;;;27.40;77.60;;;;;;4917759;29;20425;-71
2021/07/12 11:30:34;;;;;;;7.70;7.20;;;27.30;79.10;;;;;;4918222;29;20410;-71
2021/07/12 11:33:00;;;;;;;9.57;9.07;;;27.10;78.70;;;;;;4900620;29;20435;-70
2021/07/12 11:35:26;;;;;;;7.23;6.83;;;27.10;80.60;;;;;;4918480;29;20474;-71
2021/07/12 11:37:58;;;;;;;7.47;7.00;;;27.20;80.80;;;;;;4917419;29;20493;-71
2021/07/12 11:40:23;;;;;;;7.80;7.40;;;27.30;80.30;;;;;;4901348;29;20214;-71
2021/07/12 11:42:49;;;;;;;7.67;7.27;;;27.30;77.80;;;;;;4917870;29;20411;-71
2021/07/12 11:45:18;;;;;;;7.67;6.97;;;26.90;76.60;;;;;;4918407;29;20250;-70
2021/07/12 11:47:52;;;;;;;7.87;7.37;;;26.90;80.10;;;;;;4917464;29;20185;-71
2021/07/12 11:50:36;;;;;;;7.87;7.37;;;26.80;76.40;;;;;;4917083;29;20461;-70
2021/07/12 11:53:06;;;;;;;8.27;7.57;;;27.10;84.00;;;;;;4917641;29;20854;-71
2021/07/12 11:55:36;;;;;;;7.80;7.30;;;27.20;81.00;;;;;;4918178;29;20403;-71
2021/07/12 11:58:03;;;;;;;8.60;8.20;;;27.30;76.40;;;;;;4917388;29;21005;-71
2021/07/12 12:00:36;;;;;;;8.50;8.10;;;27.30;79.10;;;;;;4917902;29;20470;-71
2021/07/12 12:03:13;;;;;;;5.13;4.83;;;27.40;75.30;;;;;;4917344;29;20426;-71
2021/07/12 12:05:43;;;;;;;5.60;5.27;;;27.40;73.80;;;;;;4917797;29;20549;-71
2021/07/12 12:08:15;;;;;;;6.87;6.57;;;27.60;76.70;;;;;;4917650;29;20459;-72
2021/07/12 12:10:41;;;;;;;6.87;6.57;;;27.80;77.40;;;;;;4917775;29;20506;-71
2021/07/12 12:13:11;;;;;;;5.83;5.53;;;27.80;73.00;;;;;;4916555;29;20731;-71
2021/07/12 12:15:39;;;;;;;6.00;5.60;;;27.70;76.00;;;;;;4917690;29;20439;-72
2021/07/12 12:18:08;;;;;;;6.27;5.97;;;27.80;77.40;;;;;;4917030;29;20415;-71
2021/07/12 12:20:35;;;;;;;5.70;5.50;;;27.80;76.10;;;;;;4917669;29;20458;-71
2021/07/12 12:23:09;;;;;;;6.33;6.03;;;27.70;75.90;;;;;;4917142;29;20787;-71
2021/07/12 12:26:02;;;;;;;8.27;7.77;;;27.70;75.20;;;;;;4917703;29;20411;-70
2021/07/12 12:28:39;;;;;;;5.43;5.13;;;27.60;73.50;;;;;;4917386;29;20462;-71
2021/07/12 12:31:15;;;;;;;4.90;4.50;;;27.40;71.10;;;;;;4916717;29;20474;-71
2021/07/12 12:34:03;;;;;;;5.20;4.90;;;27.40;73.30;;;;;;4917544;29;20446;-71
2021/07/12 12:36:32;;;;;;;5.90;5.40;;;27.40;75.60;;;;;;4916181;29;20430;-72
2021/07/12 12:39:03;;;;;;;8.00;7.60;;;27.40;74.90;;;;;;4915608;29;20433;-71
2021/07/12 12:41:34;;;;;;;7.80;7.00;;;27.20;74.40;;;;;;4916770;29;20989;-71
2021/07/12 12:44:10;;;;;;;6.07;5.67;;;27.20;77.50;;;;;;4915628;29;20411;-71
2021/07/12 12:46:56;;;;;;;5.97;5.67;;;27.10;74.70;;;;;;4916469;29;20442;-72